»·PEaware :: WAT295 KSAN-KLAS

WAT295 :: KSAN-KLAS

FLIGHT INFORMATION

Flight Status: Arrived
Operator:
Walker Air Transport
More flights by this operator :: More flights under this callsign
Pilot: Corentin D. (28157)
Aircraft: CESSNA 510 CITATION MUSTANG
(C510)
More flights by this aircraft type
Origin: KSAN San Diego Intl-Lindbergh
United States
Destination: KLAS McCarran Intl
United States
More flights between these airports :: More routes between these airports
Route: PADRZ2 CHKNN SEBBY YELAH MISEN KEPEC6
File this flight plan on PilotEdge
Remarks:
Altitude:
(Current/Filed)
23,000ft
Speed:
(Current/Filed)
290kts
Departed: 20-Jul-20 03:39 PM
Arrived: 20-Jul-20 04:42 PM
Distance/Time
Traveled:
224nm/1:03
Distance/Time
To Go:
Arrived

Flight Plot

Page will automatically refresh every two minutes.

Flight plan parsing failed; only flown route is shown


Map Options




Map Legend


Flown Route
Filed Route
Departure Airport
Arrival Airport
Navaid (VOR, NDB)
Fix

Horizontal Profiles

Position Reports

Time Latitude Longitude Heading Altitude Ground
Speed
20-Jul-20 14:54 32.733191 -117.177586 17 21ft 0kts
20-Jul-20 14:54 32.733191 -117.177586 17 21ft 0kts
20-Jul-20 14:55 32.733191 -117.177586 17 21ft 0kts
20-Jul-20 14:56 32.733191 -117.177586 17 21ft 0kts
20-Jul-20 14:57 32.733191 -117.177586 17 21ft 0kts
20-Jul-20 14:58 32.733191 -117.177586 17 21ft 0kts
20-Jul-20 14:59 32.733191 -117.177586 17 21ft 0kts
20-Jul-20 15:00 32.733191 -117.177586 17 21ft 0kts
20-Jul-20 15:01 32.733191 -117.177586 17 21ft 0kts
20-Jul-20 15:02 32.733191 -117.177586 17 21ft 0kts
20-Jul-20 15:03 32.733191 -117.177586 17 21ft 0kts
20-Jul-20 15:04 32.733191 -117.177586 17 21ft 0kts
20-Jul-20 15:05 32.733191 -117.177586 17 21ft 0kts
20-Jul-20 15:06 32.733191 -117.177586 17 21ft 0kts
20-Jul-20 15:07 32.733191 -117.177586 17 21ft 0kts
20-Jul-20 15:08 32.733191 -117.177586 17 21ft 0kts
20-Jul-20 15:09 32.733191 -117.177586 17 21ft 0kts
20-Jul-20 15:10 32.733191 -117.177586 17 21ft 0kts
20-Jul-20 15:11 32.733191 -117.177586 17 21ft 0kts
20-Jul-20 15:12 32.733191 -117.177586 17 21ft 0kts
20-Jul-20 15:13 32.733191 -117.177586 17 21ft 0kts
20-Jul-20 15:14 32.733191 -117.177586 17 21ft 0kts
20-Jul-20 15:15 32.733191 -117.177586 17 21ft 0kts
20-Jul-20 15:16 32.733191 -117.177586 17 21ft 0kts
20-Jul-20 15:17 32.733191 -117.177586 17 21ft 0kts
20-Jul-20 15:18 32.733191 -117.177586 17 21ft 0kts
20-Jul-20 15:19 32.733191 -117.177586 17 21ft 0kts
20-Jul-20 15:20 32.733191 -117.177586 17 21ft 0kts
20-Jul-20 15:21 32.733191 -117.177586 17 21ft 0kts
20-Jul-20 15:22 32.733602 -117.179080 286 21ft 4kts
20-Jul-20 15:23 32.733640 -117.179349 251 21ft 0kts
20-Jul-20 15:24 32.733640 -117.179349 251 21ft 0kts
20-Jul-20 15:25 32.733640 -117.179349 251 21ft 0kts
20-Jul-20 15:26 32.733640 -117.179349 251 21ft 0kts
20-Jul-20 15:27 32.733640 -117.179349 251 21ft 0kts
20-Jul-20 15:28 32.733640 -117.179349 251 21ft 0kts
20-Jul-20 15:29 32.733640 -117.179349 251 21ft 0kts
20-Jul-20 15:30 32.733640 -117.179349 251 21ft 0kts
20-Jul-20 15:31 32.733640 -117.179349 251 21ft 0kts
20-Jul-20 15:32 32.733640 -117.179349 251 21ft 0kts
20-Jul-20 15:33 32.733640 -117.179349 251 21ft 0kts
20-Jul-20 15:34 32.733617 -117.179428 243 21ft 0kts
20-Jul-20 15:35 32.731792 -117.177460 105 21ft 13kts
20-Jul-20 15:36 32.731007 -117.175571 148 21ft 5kts
20-Jul-20 15:37 32.730191 -117.175788 287 21ft 0kts
20-Jul-20 15:38 32.741212 -117.210953 298 1042ft 200kts
20-Jul-20 15:39 32.771362 -117.266556 302 3559ft 203kts
20-Jul-20 15:40 32.802931 -117.323869 307 6068ft 212kts
20-Jul-20 15:41 32.838648 -117.379134 308 8551ft 212kts
20-Jul-20 15:42 32.874665 -117.434969 308 11046ft 221kts
20-Jul-20 15:43 32.913288 -117.495173 308 13572ft 236kts
20-Jul-20 15:44 32.953472 -117.557596 308 16062ft 240kts
20-Jul-20 15:45 32.993763 -117.620453 308 18537ft 237kts
20-Jul-20 15:46 33.033232 -117.682112 307 21009ft 230kts
20-Jul-20 15:47 33.073366 -117.739308 319 23027ft 238kts
20-Jul-20 15:48 33.131801 -117.799002 318 23023ft 307kts
20-Jul-20 15:49 33.198860 -117.867281 318 23010ft 320kts
20-Jul-20 15:50 33.268651 -117.935179 319 23018ft 325kts
20-Jul-20 15:51 33.338709 -118.003565 320 23020ft 327kts
20-Jul-20 15:52 33.409118 -118.072513 320 23011ft 328kts
20-Jul-20 15:53 33.479561 -118.141678 319 23007ft 328kts
20-Jul-20 15:54 33.549817 -118.210783 319 23005ft 328kts
20-Jul-20 15:55 33.628738 -118.265076 334 22992ft 329kts
20-Jul-20 15:56 33.713274 -118.306739 350 22983ft 331kts
20-Jul-20 15:57 33.797700 -118.269463 46 22988ft 340kts
20-Jul-20 15:58 33.853554 -118.177073 53 22994ft 341kts
20-Jul-20 15:59 33.908687 -118.083747 53 22984ft 341kts
20-Jul-20 16:00 33.963705 -117.990683 53 22982ft 341kts
20-Jul-20 16:01 34.018686 -117.897523 53 22988ft 341kts
20-Jul-20 16:02 34.073466 -117.804368 53 22996ft 341kts
20-Jul-20 16:03 34.131505 -117.713756 47 22981ft 340kts
20-Jul-20 16:04 34.192271 -117.626672 48 22978ft 340kts
20-Jul-20 16:05 34.252682 -117.538390 48 22979ft 340kts
20-Jul-20 16:06 34.312763 -117.450219 48 22984ft 340kts
20-Jul-20 16:07 34.372832 -117.361537 48 22994ft 341kts
20-Jul-20 16:08 34.433086 -117.272536 49 22989ft 341kts
20-Jul-20 16:09 34.493139 -117.183654 49 22988ft 341kts
20-Jul-20 16:10 34.553234 -117.094477 49 22990ft 341kts
20-Jul-20 16:11 34.613338 -117.004904 50 22960ft 344kts
20-Jul-20 16:12 34.674794 -116.912930 51 22930ft 351kts
20-Jul-20 16:13 34.735861 -116.822025 51 22907ft 345kts
20-Jul-20 16:14 34.796116 -116.731808 51 22908ft 342kts
20-Jul-20 16:15 34.857166 -116.643831 44 22909ft 341kts
20-Jul-20 16:16 34.930753 -116.570533 38 22910ft 341kts
20-Jul-20 16:17 35.004897 -116.498584 38 22916ft 341kts
20-Jul-20 16:18 35.079127 -116.426415 38 22925ft 341kts
20-Jul-20 16:19 35.148918 -116.345354 46 21161ft 351kts
20-Jul-20 16:20 35.217154 -116.260115 46 18926ft 345kts
20-Jul-20 16:21 35.280920 -116.179769 46 16410ft 321kts
20-Jul-20 16:22 35.342303 -116.102600 46 13910ft 314kts
20-Jul-20 16:23 35.402117 -116.026986 46 13042ft 315kts
20-Jul-20 16:24 35.462625 -115.950466 46 13035ft 310kts
20-Jul-20 16:25 35.522832 -115.874139 46 13040ft 314kts
20-Jul-20 16:26 35.583738 -115.796738 46 13045ft 315kts
20-Jul-20 16:27 35.644584 -115.719232 46 13051ft 315kts
20-Jul-20 16:28 35.705504 -115.641451 46 13055ft 316kts
20-Jul-20 16:29 35.774194 -115.576845 14 13052ft 316kts
20-Jul-20 16:31 35.851031 -115.541640 67 12128ft 300kts
20-Jul-20 16:32 35.877406 -115.448296 71 10187ft 282kts
20-Jul-20 16:33 35.902252 -115.362819 71 8290ft 277kts
20-Jul-20 16:34 35.935674 -115.281498 28 7017ft 260kts
20-Jul-20 16:35 36.001760 -115.251678 22 6288ft 238kts
20-Jul-20 16:36 36.062494 -115.224894 21 5021ft 219kts
20-Jul-20 16:37 36.117574 -115.198330 23 4037ft 215kts
20-Jul-20 16:38 36.163404 -115.166296 73 3541ft 173kts
20-Jul-20 16:39 36.148063 -115.122279 185 3527ft 120kts
20-Jul-20 16:40 36.118808 -115.145317 210 2652ft 119kts
20-Jul-20 16:41 36.091073 -115.161336 205 2118ft 45kts
20-Jul-20 16:42 36.089362 -115.163448 293 2129ft 0kts
20-Jul-20 16:43 36.087807 -115.165542 207 2140ft 20kts
20-Jul-20 16:44 36.081947 -115.168960 205 2164ft 19kts
20-Jul-20 16:45 36.081081 -115.170777 89 2169ft 0kts

Navigation Log

Ident Type
Flight plan parsing failed, navigation log unavailable